Time;durP1;ratioP1;P1;durP2;ratioP2;P2;SDS_P1;SDS_P2;PMS_P1;PMS_P2;Temp;Humidity;BMP_temperature;BMP_pressure;BME280_temperature;BME280_humidity;BME280_pressure;Samples;Min_cycle;Max_cycle;Signal;HPM_P1;HPM_P2
2022/12/23 00:02:13;;;;;;;;;;;15.70;65.90;;;;;;5010896;28;19924;-93
2022/12/23 00:04:38;;;;;;;;;;;15.70;65.90;;;;;;5024207;28;19928;-91
2022/12/23 00:07:04;;;;;;;;;;;15.70;65.90;;;;;;5004501;28;19917;-92
2022/12/23 00:09:30;;;;;;;;;;;15.70;65.90;;;;;;5001819;28;20172;-93
2022/12/23 00:17:24;;;;;;;;;;;15.70;66.00;;;;;;5009228;28;19921;-91
2022/12/23 00:19:50;;;;;;;;;;;15.80;66.10;;;;;;5008638;28;19922;-92
2022/12/23 00:22:15;;;;;;;;;;;15.80;66.00;;;;;;5002763;28;19945;-91
2022/12/23 00:24:41;;;;;;;;;;;15.80;66.00;;;;;;5007014;28;19968;-91
2022/12/23 00:27:06;;;;;;;;;;;15.80;66.00;;;;;;5000171;28;20667;-92
2022/12/23 00:29:32;;;;;;;;;;;15.80;65.90;;;;;;5008548;28;19925;-94
2022/12/23 00:31:58;;;;;;;;;;;15.80;66.00;;;;;;5009935;28;19913;-94
2022/12/23 00:34:23;;;;;;;;;;;15.80;65.90;;;;;;5006031;28;20008;-93
2022/12/23 00:36:49;;;;;;;;;;;15.90;65.90;;;;;;5023798;28;20046;-92
2022/12/23 00:45:14;;;;;;;;;;;15.90;65.90;;;;;;4996826;28;19929;-91
2022/12/23 00:50:24;;;;;;;;;;;15.90;66.00;;;;;;5009869;28;20471;-91
2022/12/23 00:52:50;;;;;;;;;;;15.90;66.00;;;;;;5000994;28;19929;-92
2022/12/23 00:55:15;;;;;;;;;;;15.90;66.00;;;;;;5007084;28;19929;-93
2022/12/23 00:57:41;;;;;;;;;;;15.90;66.00;;;;;;5016209;28;19924;-92
2022/12/23 01:00:07;;;;;;;;;;;15.90;65.90;;;;;;5021167;28;19914;-91
2022/12/23 01:05:35;;;;;;;;;;;16.00;65.90;;;;;;5014618;28;19928;-92
2022/12/23 01:08:01;;;;;;;;;;;16.00;65.80;;;;;;5008980;28;20348;-90
2022/12/23 01:10:26;;;;;;;;;;;16.00;65.80;;;;;;5008004;28;19917;-92
2022/12/23 01:12:52;;;;;;;;;;;16.00;65.80;;;;;;5011358;28;20661;-93
2022/12/23 01:15:17;;;;;;;;;;;16.00;65.80;;;;;;5013327;28;19925;-93
2022/12/23 01:17:43;;;;;;;;;;;16.00;65.90;;;;;;5009522;28;19913;-90
2022/12/23 01:20:09;;;;;;;;;;;16.00;65.80;;;;;;5012304;28;19967;-92
2022/12/23 01:22:34;;;;;;;;;;;16.00;65.80;;;;;;5011153;28;20009;-93
2022/12/23 01:25:00;;;;;;;;;;;16.00;65.80;;;;;;5006534;28;20388;-91
2022/12/23 01:27:26;;;;;;;;;;;16.00;65.90;;;;;;5009476;28;19918;-94
2022/12/23 01:29:51;;;;;;;;;;;16.00;65.70;;;;;;5010196;28;19924;-92
2022/12/23 01:32:18;;;;;;;;;;;15.90;65.70;;;;;;5007305;28;19939;-93
2022/12/23 01:34:43;;;;;;;;;;;15.90;65.70;;;;;;5010524;28;19928;-89
2022/12/23 01:37:09;;;;;;;;;;;15.90;65.80;;;;;;5000229;28;19917;-90
2022/12/23 01:39:34;;;;;;;;;;;16.00;65.90;;;;;;5012517;28;19925;-91
2022/12/23 01:44:48;;;;;;;;;;;16.00;65.80;;;;;;5010593;28;19924;-92
2022/12/23 01:47:29;;;;;;;;;;;16.00;65.80;;;;;;5009652;28;19970;-92
2022/12/23 01:50:01;;;;;;;;;;;15.90;65.90;;;;;;5012457;28;20588;-92
2022/12/23 01:52:27;;;;;;;;;;;16.00;65.80;;;;;;5011028;28;19917;-91
2022/12/23 01:54:53;;;;;;;;;;;16.00;65.80;;;;;;4995416;28;19988;-91
2022/12/23 01:57:22;;;;;;;;;;;16.00;65.70;;;;;;4997004;28;19910;-92
2022/12/23 02:05:16;;;;;;;;;;;16.00;65.60;;;;;;5011232;28;19921;-93
2022/12/23 02:10:30;;;;;;;;;;;16.00;65.70;;;;;;5009032;28;19915;-90
2022/12/23 02:13:18;;;;;;;;;;;16.00;65.80;;;;;;5012603;28;19921;-91
2022/12/23 02:18:33;;;;;;;;;;;16.10;65.80;;;;;;5012378;28;19940;-92
2022/12/23 02:21:17;;;;;;;;;;;16.00;65.80;;;;;;5028098;28;19988;-92
2022/12/23 02:23:55;;;;;;;;;;;16.10;65.70;;;;;;5027185;28;19917;-93
2022/12/23 02:26:39;;;;;;;;;;;16.00;65.70;;;;;;5011405;28;19961;-92
2022/12/23 02:29:21;;;;;;;;;;;16.00;65.80;;;;;;4995190;28;20419;-94
2022/12/23 02:31:57;;;;;;;;;;;16.00;65.80;;;;;;4998069;28;20005;-94
2022/12/23 02:34:29;;;;;;;;;;;16.00;65.80;;;;;;5014183;28;20342;-91
2022/12/23 02:37:18;;;;;;;;;;;16.10;65.80;;;;;;5014188;28;19913;-91
2022/12/23 02:39:50;;;;;;;;;;;16.00;65.90;;;;;;5012417;28;19920;-93
2022/12/23 02:42:16;;;;;;;;;;;16.00;66.00;;;;;;5020897;28;20012;-90
2022/12/23 02:44:42;;;;;;;;;;;16.00;66.00;;;;;;5011179;28;19939;-93
2022/12/23 02:47:10;;;;;;;;;;;16.00;66.00;;;;;;5012977;28;19918;-92
2022/12/23 02:49:38;;;;;;;;;;;16.00;65.90;;;;;;4994643;28;20327;-92
2022/12/23 02:52:07;;;;;;;;;;;16.00;66.00;;;;;;4996821;28;20379;-91
2022/12/23 02:54:35;;;;;;;;;;;16.00;66.00;;;;;;5010878;28;19970;-93
2022/12/23 02:57:02;;;;;;;;;;;16.10;66.00;;;;;;5011195;28;19909;-93
2022/12/23 02:59:31;;;;;;;;;;;16.10;65.90;;;;;;5010440;28;19924;-90
2022/12/23 03:01:56;;;;;;;;;;;16.10;65.90;;;;;;5012277;28;19910;-91
2022/12/23 03:04:22;;;;;;;;;;;16.10;65.90;;;;;;5010387;28;19922;-90
2022/12/23 03:06:50;;;;;;;;;;;16.20;65.80;;;;;;5012981;28;19920;-94
2022/12/23 03:09:34;;;;;;;;;;;16.10;65.80;;;;;;5009943;28;19936;-93
2022/12/23 03:12:16;;;;;;;;;;;16.00;65.90;;;;;;5013555;28;19910;-94
2022/12/23 03:14:53;;;;;;;;;;;16.00;66.00;;;;;;5015086;28;20296;-94
2022/12/23 03:17:24;;;;;;;;;;;16.00;66.00;;;;;;5011432;28;20060;-93
2022/12/23 03:19:52;;;;;;;;;;;16.00;66.00;;;;;;5010931;28;19918;-92
2022/12/23 03:22:21;;;;;;;;;;;16.00;65.90;;;;;;5011731;28;19913;-91
2022/12/23 03:25:00;;;;;;;;;;;16.00;66.00;;;;;;5010299;28;19918;-92
2022/12/23 03:27:28;;;;;;;;;;;16.10;65.80;;;;;;5009742;28;20295;-92
2022/12/23 03:30:03;;;;;;;;;;;16.00;65.90;;;;;;5012034;28;20016;-91
2022/12/23 03:32:32;;;;;;;;;;;16.00;66.00;;;;;;5009864;28;19913;-90
2022/12/23 03:34:59;;;;;;;;;;;16.10;66.10;;;;;;5012173;28;20380;-93
2022/12/23 03:37:26;;;;;;;;;;;16.10;66.00;;;;;;5012470;28;19917;-90
2022/12/23 03:39:53;;;;;;;;;;;16.10;66.10;;;;;;5011102;28;19922;-91
2022/12/23 03:42:27;;;;;;;;;;;16.10;66.00;;;;;;5012574;28;20357;-91
2022/12/23 03:44:55;;;;;;;;;;;16.10;66.00;;;;;;5012229;28;20352;-92
2022/12/23 03:47:29;;;;;;;;;;;16.10;66.00;;;;;;5010722;28;19917;-91
2022/12/23 03:49:56;;;;;;;;;;;16.10;66.00;;;;;;5011508;28;19940;-93
2022/12/23 03:52:42;;;;;;;;;;;16.10;66.10;;;;;;5009931;28;19917;-92
2022/12/23 03:55:10;;;;;;;;;;;16.10;66.10;;;;;;5012968;28;19924;-92
2022/12/23 03:57:42;;;;;;;;;;;16.10;66.00;;;;;;5011228;28;19972;-92
2022/12/23 04:00:08;;;;;;;;;;;16.10;65.80;;;;;;5013750;28;20263;-92
2022/12/23 04:02:51;;;;;;;;;;;16.10;66.00;;;;;;5012721;28;20012;-92
2022/12/23 04:05:25;;;;;;;;;;;16.10;66.00;;;;;;5010898;28;20572;-90
2022/12/23 04:08:00;;;;;;;;;;;16.20;66.10;;;;;;5010239;28;20016;-93
2022/12/23 04:10:26;;;;;;;;;;;16.10;65.90;;;;;;5010823;28;19924;-93
2022/12/23 04:12:52;;;;;;;;;;;16.10;65.90;;;;;;5011412;28;19976;-90
2022/12/23 04:15:19;;;;;;;;;;;16.10;66.00;;;;;;5006544;28;20012;-92
2022/12/23 04:17:45;;;;;;;;;;;16.10;66.00;;;;;;5001216;28;20117;-93
2022/12/23 04:20:10;;;;;;;;;;;16.10;66.00;;;;;;5011273;28;19909;-94
2022/12/23 04:22:36;;;;;;;;;;;16.10;66.00;;;;;;5011014;28;19913;-93
2022/12/23 04:25:02;;;;;;;;;;;16.10;66.10;;;;;;5011192;28;19992;-92
2022/12/23 04:27:28;;;;;;;;;;;16.10;66.10;;;;;;5009899;28;20015;-91
2022/12/23 04:29:54;;;;;;;;;;;16.10;66.10;;;;;;5002892;28;19918;-90
2022/12/23 04:32:19;;;;;;;;;;;16.10;66.00;;;;;;4994849;28;19909;-91
2022/12/23 04:34:45;;;;;;;;;;;16.10;66.10;;;;;;5009054;28;19922;-89
2022/12/23 04:37:11;;;;;;;;;;;16.10;66.00;;;;;;5015017;28;20444;-90
2022/12/23 04:39:36;;;;;;;;;;;16.20;66.00;;;;;;5013691;28;19922;-89
2022/12/23 04:42:02;;;;;;;;;;;16.20;66.00;;;;;;5015763;28;19913;-91
2022/12/23 04:44:28;;;;;;;;;;;16.20;66.00;;;;;;5013428;28;20372;-90
2022/12/23 04:46:53;;;;;;;;;;;16.20;65.80;;;;;;5005586;28;20031;-90
2022/12/23 04:49:19;;;;;;;;;;;16.20;65.90;;;;;;4993639;28;19968;-92
2022/12/23 04:51:44;;;;;;;;;;;16.20;65.80;;;;;;5003328;28;19921;-91
2022/12/23 04:54:10;;;;;;;;;;;16.20;65.90;;;;;;5013507;28;19925;-91
2022/12/23 04:56:35;;;;;;;;;;;16.20;65.80;;;;;;5013106;28;19910;-93
2022/12/23 04:59:01;;;;;;;;;;;16.20;65.80;;;;;;5013117;28;19925;-92
2022/12/23 05:01:26;;;;;;;;;;;16.20;65.80;;;;;;5013816;28;19952;-92
2022/12/23 05:03:52;;;;;;;;;;;16.20;65.80;;;;;;5014802;28;19944;-92
2022/12/23 05:06:17;;;;;;;;;;;16.20;65.90;;;;;;5015925;28;19910;-93
2022/12/23 05:08:43;;;;;;;;;;;16.20;65.80;;;;;;5014773;28;19933;-91
2022/12/23 05:11:08;;;;;;;;;;;16.20;65.80;;;;;;5013637;28;20408;-92
2022/12/23 05:13:34;;;;;;;;;;;16.20;65.70;;;;;;5013433;28;19972;-91
2022/12/23 05:15:59;;;;;;;;;;;16.20;65.80;;;;;;5013080;28;20376;-90
2022/12/23 05:18:25;;;;;;;;;;;16.20;65.70;;;;;;5014026;28;19921;-91
2022/12/23 05:20:50;;;;;;;;;;;16.20;65.70;;;;;;5013712;28;20074;-90
2022/12/23 05:23:16;;;;;;;;;;;16.30;65.60;;;;;;5013384;28;19917;-91
2022/12/23 05:25:41;;;;;;;;;;;16.30;65.50;;;;;;5013123;28;20008;-92
2022/12/23 05:28:08;;;;;;;;;;;16.30;65.50;;;;;;5012307;28;19932;-92
2022/12/23 05:30:33;;;;;;;;;;;16.30;65.50;;;;;;5011279;28;19917;-91
2022/12/23 05:32:59;;;;;;;;;;;16.30;65.50;;;;;;5012949;28;19980;-90
2022/12/23 05:35:25;;;;;;;;;;;16.30;65.50;;;;;;5013673;28;19928;-89
2022/12/23 05:37:51;;;;;;;;;;;16.30;65.40;;;;;;5007310;28;19918;-92
2022/12/23 05:40:16;;;;;;;;;;;16.30;65.50;;;;;;4997725;28;19920;-89
2022/12/23 05:42:42;;;;;;;;;;;16.30;65.30;;;;;;5002672;28;20254;-89
2022/12/23 05:45:07;;;;;;;;;;;16.30;65.30;;;;;;5002201;28;19918;-91
2022/12/23 05:47:33;;;;;;;;;;;16.30;65.30;;;;;;5013363;28;19926;-90
2022/12/23 05:49:58;;;;;;;;;;;16.40;65.20;;;;;;5006130;28;19914;-91
2022/12/23 05:52:24;;;;;;;;;;;16.40;65.20;;;;;;4994325;28;19917;-91
2022/12/23 05:54:49;;;;;;;;;;;16.30;65.30;;;;;;5011779;28;20384;-92
2022/12/23 05:57:15;;;;;;;;;;;16.30;65.20;;;;;;5011524;28;20011;-90
2022/12/23 05:59:40;;;;;;;;;;;16.30;65.30;;;;;;5011265;28;19918;-92
2022/12/23 06:02:06;;;;;;;;;;;16.30;65.20;;;;;;5011090;28;19914;-91
2022/12/23 06:04:31;;;;;;;;;;;16.30;65.30;;;;;;5011687;28;19972;-90
2022/12/23 06:06:57;;;;;;;;;;;16.30;65.20;;;;;;5012792;28;19909;-90
2022/12/23 06:09:22;;;;;;;;;;;16.30;65.20;;;;;;5010945;28;20297;-91
2022/12/23 06:11:52;;;;;;;;;;;16.30;65.30;;;;;;5013536;28;19917;-90
2022/12/23 06:14:18;;;;;;;;;;;16.30;65.30;;;;;;5013031;28;20008;-92
2022/12/23 06:16:45;;;;;;;;;;;16.20;65.30;;;;;;5003548;28;19967;-91
2022/12/23 06:19:11;;;;;;;;;;;16.20;65.40;;;;;;5012208;28;19918;-93
2022/12/23 06:21:37;;;;;;;;;;;16.20;65.40;;;;;;5013630;28;19910;-92
2022/12/23 06:24:03;;;;;;;;;;;16.20;65.40;;;;;;5013911;28;19928;-91
2022/12/23 06:26:38;;;;;;;;;;;16.20;65.50;;;;;;5013811;28;20003;-93
2022/12/23 06:29:03;;;;;;;;;;;16.20;65.20;;;;;;5014781;28;19936;-92
2022/12/23 06:31:31;;;;;;;;;;;16.20;65.10;;;;;;5009923;28;19917;-90
2022/12/23 06:33:57;;;;;;;;;;;16.10;65.30;;;;;;5009472;28;19953;-93
2022/12/23 06:36:30;;;;;;;;;;;16.10;65.20;;;;;;5011234;28;19916;-90
2022/12/23 06:38:56;;;;;;;;;;;16.00;65.10;;;;;;5008503;28;19936;-93
2022/12/23 06:41:22;;;;;;;;;;;16.00;65.10;;;;;;5003797;28;19917;-92
2022/12/23 06:43:48;;;;;;;;;;;15.90;65.20;;;;;;5013391;28;19936;-93
2022/12/23 06:46:14;;;;;;;;;;;15.90;65.10;;;;;;5013584;28;19955;-93
2022/12/23 06:48:40;;;;;;;;;;;15.90;65.10;;;;;;5011964;28;19928;-91
2022/12/23 06:51:06;;;;;;;;;;;15.80;65.40;;;;;;5012955;28;20008;-92
2022/12/23 06:53:32;;;;;;;;;;;15.80;65.30;;;;;;5010573;28;20303;-93
2022/12/23 06:56:02;;;;;;;;;;;15.80;65.30;;;;;;5010761;28;19914;-91
2022/12/23 06:58:29;;;;;;;;;;;15.80;65.30;;;;;;5011934;28;20331;-90
2022/12/23 07:00:54;;;;;;;;;;;15.80;65.30;;;;;;5012377;28;19952;-93
2022/12/23 07:03:21;;;;;;;;;;;15.80;65.30;;;;;;5012560;28;19917;-92
2022/12/23 07:05:46;;;;;;;;;;;15.80;65.30;;;;;;5010432;28;20422;-91
2022/12/23 07:08:13;;;;;;;;;;;15.80;65.40;;;;;;5012124;28;19925;-93
2022/12/23 07:10:38;;;;;;;;;;;15.80;65.40;;;;;;5008871;28;19956;-92
2022/12/23 07:13:04;;;;;;;;;;;15.80;65.30;;;;;;5011596;28;19968;-93
2022/12/23 07:15:29;;;;;;;;;;;15.80;65.40;;;;;;5011918;28;19909;-91
2022/12/23 07:17:57;;;;;;;;;;;15.80;65.30;;;;;;5013853;28;20246;-92
2022/12/23 07:20:23;;;;;;;;;;;15.80;65.40;;;;;;5010766;28;19909;-90
2022/12/23 07:22:49;;;;;;;;;;;15.90;65.30;;;;;;5011955;28;19917;-92
2022/12/23 07:25:15;;;;;;;;;;;15.90;65.30;;;;;;5013321;28;19913;-89
2022/12/23 07:27:40;;;;;;;;;;;15.90;65.30;;;;;;5016561;28;19975;-92
2022/12/23 07:30:06;;;;;;;;;;;15.90;65.30;;;;;;5012845;28;19913;-92
2022/12/23 07:32:40;;;;;;;;;;;15.90;65.20;;;;;;5001225;28;19917;-90
2022/12/23 07:35:06;;;;;;;;;;;15.90;65.20;;;;;;4998911;28;19924;-92
2022/12/23 07:37:32;;;;;;;;;;;15.90;65.20;;;;;;5035908;28;19918;-92
2022/12/23 07:39:58;;;;;;;;;;;15.90;65.10;;;;;;5011534;28;19962;-92
2022/12/23 07:42:23;;;;;;;;;;;16.00;65.10;;;;;;5030553;28;19922;-90
2022/12/23 07:44:49;;;;;;;;;;;16.00;65.00;;;;;;4999312;28;19914;-92
2022/12/23 07:47:15;;;;;;;;;;;15.90;65.00;;;;;;4999549;28;19937;-90
2022/12/23 07:49:41;;;;;;;;;;;15.90;65.00;;;;;;5002797;28;20406;-92
2022/12/23 07:52:06;;;;;;;;;;;15.90;65.00;;;;;;5001961;28;20020;-89
2022/12/23 07:54:32;;;;;;;;;;;15.90;65.10;;;;;;4999937;28;19913;-90
2022/12/23 07:56:57;;;;;;;;;;;15.90;65.00;;;;;;5034112;28;19985;-89
2022/12/23 07:59:26;;;;;;;;;;;15.90;64.90;;;;;;5001826;28;19918;-91
2022/12/23 08:01:52;;;;;;;;;;;15.90;65.00;;;;;;4998331;28;19926;-91
2022/12/23 08:04:17;;;;;;;;;;;15.90;65.10;;;;;;4997056;28;19914;-90
2022/12/23 08:06:43;;;;;;;;;;;15.90;65.00;;;;;;5012340;28;19914;-90
2022/12/23 08:09:09;;;;;;;;;;;16.00;65.10;;;;;;5004733;28;20466;-91
2022/12/23 08:11:35;;;;;;;;;;;16.00;65.10;;;;;;5010060;28;19918;-93
2022/12/23 08:14:03;;;;;;;;;;;16.00;65.10;;;;;;5005471;28;19913;-91
2022/12/23 08:16:28;;;;;;;;;;;16.00;65.10;;;;;;5001110;28;19914;-90
2022/12/23 08:18:54;;;;;;;;;;;16.00;65.10;;;;;;5001279;28;19926;-89
2022/12/23 08:21:20;;;;;;;;;;;16.00;65.10;;;;;;5001161;28;20407;-91
2022/12/23 08:23:46;;;;;;;;;;;16.10;65.10;;;;;;4998790;28;19918;-92
2022/12/23 08:26:13;;;;;;;;;;;16.00;65.00;;;;;;5023217;28;19968;-91
2022/12/23 08:28:39;;;;;;;;;;;16.10;65.00;;;;;;5003957;28;20335;-92
2022/12/23 08:31:06;;;;;;;;;;;16.10;65.00;;;;;;4999830;28;19929;-92
2022/12/23 08:33:32;;;;;;;;;;;16.10;64.90;;;;;;5005469;28;19979;-93
2022/12/23 08:35:58;;;;;;;;;;;16.20;64.80;;;;;;4999137;28;19909;-92
2022/12/23 08:38:24;;;;;;;;;;;16.20;64.80;;;;;;5031983;28;19924;-92
2022/12/23 08:40:49;;;;;;;;;;;16.20;64.70;;;;;;4999666;28;19924;-91
2022/12/23 08:43:15;;;;;;;;;;;16.20;64.80;;;;;;5001299;28;19934;-93
2022/12/23 08:45:40;;;;;;;;;;;16.20;64.80;;;;;;4997742;28;19999;-92
2022/12/23 08:48:06;;;;;;;;;;;16.20;64.80;;;;;;5008343;28;19925;-90
2022/12/23 08:50:41;;;;;;;;;;;16.30;64.70;;;;;;5008788;28;19920;-90
2022/12/23 08:53:07;;;;;;;;;;;16.30;64.60;;;;;;5012195;28;19928;-92
2022/12/23 08:55:37;;;;;;;;;;;16.30;64.70;;;;;;5006935;28;19913;-91
2022/12/23 08:58:02;;;;;;;;;;;16.30;64.70;;;;;;5011359;28;20359;-91
2022/12/23 09:00:28;;;;;;;;;;;16.30;64.80;;;;;;5011408;28;19909;-92
2022/12/23 09:02:54;;;;;;;;;;;16.30;64.90;;;;;;5013316;28;20349;-93
2022/12/23 09:05:20;;;;;;;;;;;16.40;64.80;;;;;;5006639;28;20346;-91
2022/12/23 09:07:47;;;;;;;;;;;16.40;64.80;;;;;;5010002;28;19932;-90
2022/12/23 09:10:12;;;;;;;;;;;16.50;64.80;;;;;;5008288;28;19913;-93
2022/12/23 09:12:38;;;;;;;;;;;16.50;64.90;;;;;;5012317;28;20000;-91
2022/12/23 09:15:13;;;;;;;;;;;16.60;64.80;;;;;;5006358;28;19922;-92
2022/12/23 09:17:38;;;;;;;;;;;16.70;64.90;;;;;;5010787;28;20460;-92
2022/12/23 09:20:04;;;;;;;;;;;16.70;64.90;;;;;;5012388;28;20328;-92
2022/12/23 09:22:33;;;;;;;;;;;16.80;64.90;;;;;;5003642;28;20258;-91
2022/12/23 09:24:59;;;;;;;;;;;16.80;64.80;;;;;;5006394;28;19929;-91
2022/12/23 09:27:25;;;;;;;;;;;16.90;64.80;;;;;;5003259;28;19922;-91
2022/12/23 09:29:50;;;;;;;;;;;17.00;64.90;;;;;;5010906;28;19929;-91
2022/12/23 09:32:16;;;;;;;;;;;17.10;64.90;;;;;;4993441;28;19918;-92
2022/12/23 09:34:41;;;;;;;;;;;17.10;65.00;;;;;;5010243;28;19925;-91
2022/12/23 09:37:07;;;;;;;;;;;17.10;64.90;;;;;;5012216;28;19918;-93
2022/12/23 09:39:33;;;;;;;;;;;17.20;65.00;;;;;;5016139;28;19920;-91
2022/12/23 09:42:03;;;;;;;;;;;17.30;65.20;;;;;;5011086;28;19929;-91
2022/12/23 09:44:29;;;;;;;;;;;17.30;65.40;;;;;;5011328;28;19917;-89
2022/12/23 09:47:00;;;;;;;;;;;17.40;65.30;;;;;;4999322;28;19918;-92
2022/12/23 09:49:46;;;;;;;;;;;17.50;65.30;;;;;;5006051;28;20012;-91
2022/12/23 09:52:15;;;;;;;;;;;17.60;65.10;;;;;;4997845;28;19926;-92
2022/12/23 09:54:44;;;;;;;;;;;17.70;65.00;;;;;;5010993;28;19937;-88
2022/12/23 09:57:17;;;;;;;;;;;17.70;64.90;;;;;;5012538;28;20324;-92
2022/12/23 09:59:48;;;;;;;;;;;17.70;64.80;;;;;;5010549;28;19921;-91
2022/12/23 10:02:23;;;;;;;;;;;17.80;64.70;;;;;;5019909;28;20276;-93
2022/12/23 10:04:49;;;;;;;;;;;17.70;64.80;;;;;;5012665;28;19921;-92
2022/12/23 10:07:17;;;;;;;;;;;17.70;64.90;;;;;;5012768;28;19922;-90
2022/12/23 10:09:44;;;;;;;;;;;17.80;64.60;;;;;;5012396;28;20391;-91
2022/12/23 10:12:15;;;;;;;;;;;17.80;64.40;;;;;;5012032;28;20380;-90
2022/12/23 10:14:42;;;;;;;;;;;17.70;64.30;;;;;;5016448;28;19920;-93
2022/12/23 10:17:13;;;;;;;;;;;17.60;64.30;;;;;;5015255;28;19928;-90
2022/12/23 10:19:40;;;;;;;;;;;17.60;64.30;;;;;;5009791;28;19913;-92
2022/12/23 10:22:13;;;;;;;;;;;17.50;64.30;;;;;;5014374;28;19917;-91
2022/12/23 10:24:43;;;;;;;;;;;17.50;64.50;;;;;;5010243;28;19922;-91
2022/12/23 10:27:09;;;;;;;;;;;17.60;64.60;;;;;;5010838;28;19924;-92
2022/12/23 10:29:35;;;;;;;;;;;17.60;64.80;;;;;;5012388;28;19925;-92
2022/12/23 10:32:01;;;;;;;;;;;17.60;64.80;;;;;;5011547;28;19929;-91
2022/12/23 10:34:48;;;;;;;;;;;17.70;64.90;;;;;;4999245;28;20362;-91
2022/12/23 10:37:18;;;;;;;;;;;17.80;65.10;;;;;;5005805;28;20016;-92
2022/12/23 10:39:51;;;;;;;;;;;17.80;65.00;;;;;;5009845;28;20002;-92
2022/12/23 10:42:24;;;;;;;;;;;17.80;65.00;;;;;;5010076;28;20021;-90
2022/12/23 10:44:55;;;;;;;;;;;18.00;64.90;;;;;;5003258;28;20360;-93
2022/12/23 10:47:21;;;;;;;;;;;18.00;64.70;;;;;;5002468;28;19929;-94
2022/12/23 10:49:59;;;;;;;;;;;18.00;64.80;;;;;;5002321;28;19921;-93
2022/12/23 10:52:26;;;;;;;;;;;18.00;64.70;;;;;;5015412;28;20020;-92
2022/12/23 10:54:52;;;;;;;;;;;18.00;64.80;;;;;;5007798;28;20718;-92
2022/12/23 10:57:18;;;;;;;;;;;18.10;64.70;;;;;;5007941;28;19921;-90
2022/12/23 10:59:44;;;;;;;;;;;18.10;64.50;;;;;;5009004;28;19918;-94
2022/12/23 11:02:12;;;;;;;;;;;18.20;64.60;;;;;;5007365;28;20270;-91
2022/12/23 11:04:39;;;;;;;;;;;18.20;64.60;;;;;;5007979;28;19921;-91
2022/12/23 11:07:06;;;;;;;;;;;18.20;64.60;;;;;;5002026;28;19921;-93
2022/12/23 11:09:42;;;;;;;;;;;18.20;64.60;;;;;;5000420;28;20019;-90
2022/12/23 11:12:09;;;;;;;;;;;18.20;64.60;;;;;;5024605;28;20412;-90
2022/12/23 11:14:36;;;;;;;;;;;18.20;64.50;;;;;;4997722;28;20392;-93
2022/12/23 11:17:02;;;;;;;;;;;18.30;64.30;;;;;;4996233;28;19926;-91
2022/12/23 11:19:28;;;;;;;;;;;18.20;64.30;;;;;;4997809;28;19917;-93
2022/12/23 11:21:58;;;;;;;;;;;18.20;64.20;;;;;;5002417;28;19944;-92
2022/12/23 11:24:24;;;;;;;;;;;18.20;64.20;;;;;;5000740;28;19913;-93
2022/12/23 11:26:58;;;;;;;;;;;18.30;64.00;;;;;;4997553;28;19921;-92
2022/12/23 11:29:27;;;;;;;;;;;18.20;63.90;;;;;;5005330;28;19926;-92
2022/12/23 11:31:53;;;;;;;;;;;18.20;64.00;;;;;;4996625;28;20023;-92
2022/12/23 11:34:20;;;;;;;;;;;18.20;64.00;;;;;;5000236;28;19921;-90
2022/12/23 11:36:53;;;;;;;;;;;18.20;64.00;;;;;;4999293;28;19921;-88
2022/12/23 11:39:26;;;;;;;;;;;18.20;64.10;;;;;;5005828;28;19917;-94
2022/12/23 11:41:53;;;;;;;;;;;18.20;64.20;;;;;;5005756;28;21216;-90
2022/12/23 11:44:27;;;;;;;;;;;18.20;64.30;;;;;;5005915;28;19917;-89
2022/12/23 11:46:52;;;;;;;;;;;18.30;64.20;;;;;;5005838;28;19925;-89
2022/12/23 11:49:19;;;;;;;;;;;18.20;64.00;;;;;;5004838;28;19931;-90
2022/12/23 11:51:46;;;;;;;;;;;18.20;64.20;;;;;;5006609;28;20554;-89
2022/12/23 11:54:17;;;;;;;;;;;18.20;64.30;;;;;;5006626;28;19917;-92
2022/12/23 11:56:43;;;;;;;;;;;18.20;64.20;;;;;;5004426;28;20677;-90
2022/12/23 11:59:19;;;;;;;;;;;18.20;64.20;;;;;;5007516;28;20040;-91
2022/12/23 12:01:46;;;;;;;;;;;18.20;64.10;;;;;;5003838;28;20609;-90
2022/12/23 12:04:18;;;;;;;;;;;18.10;63.90;;;;;;5008030;28;19943;-90
2022/12/23 12:06:44;;;;;;;;;;;18.10;63.90;;;;;;5001892;28;19963;-91
2022/12/23 12:09:11;;;;;;;;;;;18.00;63.80;;;;;;5006338;28;19930;-90
2022/12/23 12:11:38;;;;;;;;;;;18.00;63.70;;;;;;5010017;28;19957;-92
2022/12/23 12:14:04;;;;;;;;;;;17.90;63.60;;;;;;5007172;28;19932;-91
2022/12/23 12:16:30;;;;;;;;;;;17.80;63.70;;;;;;5001194;28;19963;-90
2022/12/23 12:19:02;;;;;;;;;;;17.80;63.70;;;;;;5009410;28;19964;-90
2022/12/23 12:21:29;;;;;;;;;;;17.70;63.50;;;;;;5007920;28;19914;-90
2022/12/23 12:24:07;;;;;;;;;;;17.70;63.30;;;;;;5006892;28;19922;-92
2022/12/23 12:26:34;;;;;;;;;;;17.60;63.10;;;;;;5009074;28;19917;-92
2022/12/23 12:29:18;;;;;;;;;;;17.40;63.20;;;;;;5008823;28;19928;-88
2022/12/23 12:31:46;;;;;;;;;;;17.40;63.40;;;;;;5009052;28;19957;-91
2022/12/23 12:34:20;;;;;;;;;;;17.20;63.50;;;;;;5006221;28;20004;-90
2022/12/23 12:37:11;;;;;;;;;;;17.20;63.60;;;;;;5008669;28;19922;-92
2022/12/23 12:39:40;;;;;;;;;;;17.10;63.60;;;;;;4989560;28;19921;-90
2022/12/23 12:42:18;;;;;;;;;;;16.90;63.70;;;;;;5009906;28;19922;-91
2022/12/23 12:44:46;;;;;;;;;;;16.70;63.70;;;;;;4995294;28;19913;-91
2022/12/23 12:47:14;;;;;;;;;;;16.60;64.00;;;;;;5010106;28;19924;-90
2022/12/23 12:49:49;;;;;;;;;;;16.50;64.00;;;;;;5019345;28;19928;-90
2022/12/23 12:52:18;;;;;;;;;;;16.40;64.30;;;;;;5010079;28;20606;-92
2022/12/23 12:54:44;;;;;;;;;;;16.40;64.40;;;;;;5014657;28;19975;-90
2022/12/23 12:57:17;;;;;;;;;;;16.40;64.60;;;;;;5011169;28;19918;-91
2022/12/23 12:59:43;;;;;;;;;;;16.40;64.70;;;;;;5013566;28;19914;-89
2022/12/23 13:02:27;;;;;;;;;;;16.40;64.70;;;;;;5012476;28;20329;-92
2022/12/23 13:05:14;;;;;;;;;;;16.30;64.70;;;;;;5014441;28;19909;-89
2022/12/23 13:07:40;;;;;;;;;;;16.30;64.60;;;;;;5012509;28;19917;-88
2022/12/23 13:10:18;;;;;;;;;;;16.20;64.80;;;;;;5014403;28;19913;-90
2022/12/23 13:12:49;;;;;;;;;;;16.20;64.90;;;;;;5012633;28;20335;-89
2022/12/23 13:15:17;;;;;;;;;;;16.20;64.80;;;;;;5012070;28;19937;-89
2022/12/23 13:18:05;;;;;;;;;;;16.20;64.90;;;;;;5016406;28;19972;-89
2022/12/23 13:20:50;;;;;;;;;;;16.20;64.70;;;;;;5012173;28;19924;-90
2022/12/23 13:23:21;;;;;;;;;;;16.20;64.70;;;;;;5006365;28;19918;-90
2022/12/23 13:25:50;;;;;;;;;;;16.10;64.70;;;;;;5008336;28;19917;-91
2022/12/23 13:28:25;;;;;;;;;;;16.00;64.80;;;;;;5016984;28;19926;-90
2022/12/23 13:31:00;;;;;;;;;;;16.10;64.80;;;;;;5018908;28;19909;-92
2022/12/23 13:33:39;;;;;;;;;;;16.00;64.60;;;;;;5011766;28;19925;-91
2022/12/23 13:36:23;;;;;;;;;;;15.90;64.60;;;;;;5011554;28;20335;-88
2022/12/23 13:39:07;;;;;;;;;;;15.90;64.90;;;;;;5012620;28;19921;-88
2022/12/23 13:41:42;;;;;;;;;;;15.90;65.10;;;;;;5000986;28;20281;-91
2022/12/23 13:44:09;;;;;;;;;;;15.80;64.90;;;;;;5005149;28;19940;-91
2022/12/23 13:46:43;;;;;;;;;;;15.80;64.80;;;;;;5016495;28;19991;-89
2022/12/23 13:49:16;;;;;;;;;;;15.80;64.80;;;;;;5011242;28;19928;-88
2022/12/23 13:51:42;;;;;;;;;;;15.70;64.80;;;;;;5013248;28;19917;-90
2022/12/23 13:54:07;;;;;;;;;;;15.70;64.80;;;;;;5006477;28;19917;-91
2022/12/23 13:56:48;;;;;;;;;;;15.70;64.90;;;;;;5010981;28;19913;-88
2022/12/23 13:59:14;;;;;;;;;;;15.70;65.00;;;;;;5013468;28;20051;-91
2022/12/23 14:01:40;;;;;;;;;;;15.60;64.90;;;;;;5020629;28;20371;-89
2022/12/23 14:04:24;;;;;;;;;;;15.60;64.90;;;;;;5012536;28;19921;-90
2022/12/23 14:06:55;;;;;;;;;;;15.50;64.80;;;;;;5013053;28;19913;-92
2022/12/23 14:09:26;;;;;;;;;;;15.50;64.90;;;;;;5012653;28;19929;-90
2022/12/23 14:11:52;;;;;;;;;;;15.40;64.90;;;;;;5024516;28;19932;-90
2022/12/23 14:14:21;;;;;;;;;;;15.40;65.10;;;;;;5011541;28;19913;-88
2022/12/23 14:16:46;;;;;;;;;;;15.30;65.00;;;;;;5011966;28;19909;-90
2022/12/23 14:19:44;;;;;;;;;;;15.30;65.00;;;;;;5012604;28;19914;-91
2022/12/23 14:22:31;;;;;;;;;;;15.20;65.10;;;;;;4977059;28;19921;-89
2022/12/23 14:25:23;;;;;;;;;;;15.30;65.20;;;;;;4994014;28;20044;-91
2022/12/23 14:27:51;;;;;;;;;;;15.20;65.00;;;;;;4981398;28;20433;-90
2022/12/23 14:30:23;;;;;;;;;;;15.20;65.10;;;;;;4994534;28;19914;-89
2022/12/23 14:32:54;;;;;;;;;;;15.20;65.20;;;;;;4994600;28;20005;-89
2022/12/23 14:35:45;;;;;;;;;;;15.20;65.20;;;;;;4997612;28;19910;-92
2022/12/23 14:38:14;;;;;;;;;;;15.20;65.20;;;;;;4993875;28;19918;-89
2022/12/23 14:40:42;;;;;;;;;;;15.10;65.10;;;;;;4994132;28;20289;-88
2022/12/23 14:43:20;;;;;;;;;;;15.10;65.20;;;;;;4996936;28;19918;-89
2022/12/23 14:45:46;;;;;;;;;;;15.10;65.30;;;;;;4999823;28;19921;-92
2022/12/23 14:48:31;;;;;;;;;;;15.00;65.40;;;;;;4995355;28;19930;-89
2022/12/23 14:51:17;;;;;;;;;;;15.10;65.40;;;;;;4993145;28;19933;-88
2022/12/23 14:53:52;;;;;;;;;;;15.00;65.30;;;;;;4984099;28;19988;-89
2022/12/23 14:56:18;;;;;;;;;;;15.10;65.20;;;;;;4992940;28;19910;-91
2022/12/23 14:59:19;;;;;;;;;;;15.00;65.20;;;;;;4993527;28;19928;-93